createdAt,value
2017-05-19T00:01:03.909Z,8.00
2017-05-19T00:03:30.867Z,8.68
2017-05-19T00:05:57.885Z,9.72
2017-05-19T00:08:24.849Z,8.40
2017-05-19T00:10:51.807Z,8.40
2017-05-19T00:13:18.795Z,7.44
2017-05-19T00:15:45.760Z,7.36
2017-05-19T00:20:47.167Z,9.80
2017-05-19T00:23:14.161Z,6.88
2017-05-19T00:25:41.877Z,6.88
2017-05-19T00:28:08.873Z,6.02
2017-05-19T00:30:36.573Z,6.16
2017-05-19T00:33:03.542Z,5.98
2017-05-19T00:35:30.523Z,6.50
2017-05-19T00:37:57.483Z,6.20
2017-05-19T00:40:24.469Z,7.18
2017-05-19T00:42:51.450Z,6.94
2017-05-19T00:45:18.813Z,7.40
2017-05-19T00:47:45.791Z,6.78
2017-05-19T00:50:13.535Z,6.82
2017-05-19T00:52:40.501Z,7.08
2017-05-19T00:55:08.208Z,6.68
2017-05-19T00:57:35.205Z,7.78
2017-05-19T01:00:02.168Z,7.60
2017-05-19T01:02:29.897Z,7.88
2017-05-19T01:04:56.892Z,8.16
2017-05-19T01:07:23.887Z,9.06
2017-05-19T01:09:50.861Z,8.14
2017-05-19T01:12:18.599Z,8.80
2017-05-19T01:14:45.568Z,9.42
2017-05-19T01:17:13.298Z,9.30
2017-05-19T01:19:40.297Z,8.62
2017-05-19T01:22:07.293Z,9.42
2017-05-19T01:24:34.262Z,7.78
2017-05-19T01:27:01.227Z,7.50
2017-05-19T01:29:28.953Z,9.16
2017-05-19T01:31:55.998Z,8.74
2017-05-19T01:34:23.008Z,9.24
2017-05-19T01:36:49.984Z,8.46
2017-05-19T01:39:16.999Z,8.96
2017-05-19T01:41:43.978Z,9.64
2017-05-19T01:44:10.996Z,9.12
2017-05-19T01:46:37.983Z,8.40
2017-05-19T01:49:04.968Z,9.36
2017-05-19T01:51:31.984Z,8.58
2017-05-19T01:53:58.982Z,8.22
2017-05-19T01:56:25.972Z,8.28
2017-05-19T01:58:52.947Z,7.60
2017-05-19T02:01:19.945Z,7.50
2017-05-19T02:03:46.937Z,6.88
2017-05-19T02:06:14.713Z,6.88
2017-05-19T02:08:41.673Z,5.50
2017-05-19T02:11:08.633Z,6.54
2017-05-19T02:13:35.777Z,6.00
2017-05-19T02:16:02.666Z,6.46
2017-05-19T02:18:30.397Z,7.00
2017-05-19T02:20:57.371Z,6.68
2017-05-19T02:23:25.114Z,7.06
2017-05-19T02:25:52.079Z,6.68
2017-05-19T02:28:19.814Z,6.38
2017-05-19T02:30:46.786Z,6.62
2017-05-19T02:33:14.512Z,8.42
2017-05-19T02:35:41.483Z,7.18
2017-05-19T02:38:08.492Z,6.64
2017-05-19T02:40:35.457Z,6.56
2017-05-19T02:43:02.472Z,7.10
2017-05-19T02:45:29.442Z,7.22
2017-05-19T02:47:56.409Z,6.48
2017-05-19T02:50:23.392Z,6.58
2017-05-19T02:52:50.355Z,6.72
2017-05-19T02:55:18.076Z,6.14
2017-05-19T02:57:45.042Z,6.10
2017-05-19T03:00:12.031Z,5.40
2017-05-19T03:02:38.997Z,5.26
2017-05-19T03:05:06.006Z,6.08
2017-05-19T03:07:32.981Z,6.42
2017-05-19T03:09:59.967Z,6.00
2017-05-19T03:12:26.932Z,6.58
2017-05-19T03:14:53.902Z,8.40
2017-05-19T03:17:20.893Z,9.28
2017-05-19T03:19:48.598Z,7.16
2017-05-19T03:22:15.582Z,6.42
2017-05-19T03:24:42.560Z,6.08
2017-05-19T03:27:09.551Z,7.30
2017-05-19T03:29:36.521Z,6.76
2017-05-19T03:32:03.494Z,7.20
2017-05-19T03:34:31.225Z,7.12
2017-05-19T03:36:58.194Z,8.28
2017-05-19T03:39:25.922Z,6.48
2017-05-19T03:41:52.903Z,7.44
2017-05-19T03:44:19.893Z,6.76
2017-05-19T03:46:46.863Z,6.72
2017-05-19T03:49:13.863Z,6.82
2017-05-19T03:51:40.837Z,7.92
2017-05-19T03:54:07.825Z,7.06
2017-05-19T03:56:34.791Z,8.40
2017-05-19T03:59:01.778Z,6.96
2017-05-19T04:01:28.743Z,7.54
2017-05-19T04:03:55.749Z,6.70
2017-05-19T04:06:22.734Z,7.94
2017-05-19T04:08:49.697Z,7.40
2017-05-19T04:11:16.689Z,7.52
2017-05-19T04:13:44.400Z,7.28
2017-05-19T04:16:11.396Z,7.68
2017-05-19T04:18:39.101Z,8.50
2017-05-19T04:21:06.089Z,8.60
2017-05-19T04:23:33.058Z,8.78
2017-05-19T04:26:00.788Z,8.72
2017-05-19T04:28:27.754Z,8.42
2017-05-19T04:30:55.511Z,8.86
2017-05-19T04:33:23.218Z,8.42
2017-05-19T04:35:50.187Z,9.04
2017-05-19T04:38:17.179Z,8.42
2017-05-19T04:40:44.883Z,8.82
2017-05-19T04:43:11.910Z,10.04
2017-05-19T04:45:38.882Z,8.64
2017-05-19T04:48:05.878Z,8.16
2017-05-19T04:53:07.445Z,8.58
2017-05-19T04:55:35.241Z,9.24
2017-05-19T04:58:02.249Z,8.66
2017-05-19T05:00:29.962Z,9.20
2017-05-19T05:02:56.949Z,9.86
2017-05-19T05:05:24.665Z,9.74
2017-05-19T05:07:52.456Z,8.24
2017-05-19T05:10:20.199Z,10.06
2017-05-19T05:13:23.775Z,9.62
2017-05-19T05:15:50.737Z,8.62
2017-05-19T05:18:17.715Z,9.18
2017-05-19T05:20:44.721Z,8.80
2017-05-19T05:23:11.690Z,8.54
2017-05-19T05:25:38.653Z,8.58
2017-05-19T05:28:05.685Z,9.22
2017-05-19T05:30:32.650Z,9.48
2017-05-19T05:32:59.618Z,9.80
2017-05-19T05:35:26.601Z,10.08
2017-05-19T05:37:53.561Z,9.62
2017-05-19T05:40:20.576Z,10.02
2017-05-19T05:42:47.541Z,9.50
2017-05-19T05:45:14.508Z,10.00
2017-05-19T05:47:41.510Z,14.54
2017-05-19T05:50:08.578Z,10.84
2017-05-19T05:52:35.582Z,11.26
2017-05-19T05:55:02.549Z,9.98
2017-05-19T05:57:29.544Z,12.84
2017-05-19T05:59:56.514Z,10.74
2017-05-19T06:02:23.481Z,9.86
2017-05-19T06:04:50.490Z,11.02
2017-05-19T06:07:17.451Z,12.12
2017-05-19T06:09:44.434Z,11.28
2017-05-19T06:12:11.411Z,10.52
2017-05-19T06:14:38.394Z,12.04
2017-05-19T06:17:05.361Z,12.60
2017-05-19T06:19:32.375Z,12.90
2017-05-19T06:21:59.342Z,15.28
2017-05-19T06:24:26.318Z,17.42
2017-05-19T06:26:53.310Z,16.34
2017-05-19T06:29:20.277Z,17.56
2017-05-19T06:31:48.596Z,21.08
2017-05-19T06:34:15.633Z,19.32
2017-05-19T06:36:42.668Z,19.86
2017-05-19T06:39:09.703Z,21.90
2017-05-19T06:41:36.973Z,20.58
2017-05-19T06:44:03.983Z,20.60
2017-05-19T06:46:30.947Z,20.08
2017-05-19T06:48:57.935Z,22.10
2017-05-19T06:51:24.903Z,22.12
2017-05-19T06:53:51.892Z,17.40
2017-05-19T06:56:18.869Z,15.78
2017-05-19T06:58:45.882Z,15.48
2017-05-19T07:01:12.865Z,14.08
2017-05-19T07:03:39.836Z,13.68
2017-05-19T07:06:06.850Z,13.98
2017-05-19T07:08:33.820Z,17.22
2017-05-19T07:11:00.811Z,13.32
2017-05-19T07:13:27.809Z,13.60
2017-05-19T07:15:54.812Z,15.08
2017-05-19T07:18:22.002Z,14.98
2017-05-19T07:20:49.018Z,15.48
2017-05-19T07:23:16.013Z,15.48
2017-05-19T07:25:42.990Z,13.84
2017-05-19T07:28:10.001Z,9.00
2017-05-19T07:30:36.973Z,6.98
2017-05-19T07:33:03.995Z,6.78
2017-05-19T07:35:30.958Z,6.48
2017-05-19T07:37:58.000Z,5.92
2017-05-19T07:40:25.375Z,4.66
2017-05-19T07:42:52.335Z,3.88
2017-05-19T07:45:26.287Z,3.40
2017-05-19T07:47:53.244Z,3.28
2017-05-19T07:50:20.236Z,1.72
2017-05-19T07:52:47.195Z,1.32
2017-05-19T07:55:14.185Z,1.74
2017-05-19T07:57:41.168Z,1.60
2017-05-19T08:00:08.175Z,1.40
2017-05-19T08:02:35.155Z,1.08
2017-05-19T08:05:02.150Z,1.44
2017-05-19T08:07:29.153Z,1.34
2017-05-19T08:09:56.114Z,0.60
2017-05-19T08:12:23.113Z,1.34
2017-05-19T08:14:50.074Z,1.92
2017-05-19T08:17:17.059Z,0.66
2017-05-19T08:19:44.024Z,0.86
2017-05-19T08:22:11.029Z,1.22
2017-05-19T08:24:38.000Z,0.60
2017-05-19T08:27:04.974Z,0.60
2017-05-19T08:29:31.238Z,0.50
2017-05-19T08:31:58.203Z,0.70
2017-05-19T08:34:25.200Z,0.54
2017-05-19T08:36:52.190Z,0.50
2017-05-19T08:39:19.186Z,0.40
2017-05-19T08:41:46.146Z,1.02
2017-05-19T08:44:13.143Z,0.38
2017-05-19T08:46:40.106Z,1.10
2017-05-19T08:49:07.071Z,0.28
2017-05-19T08:51:34.061Z,2.54
2017-05-19T08:54:01.032Z,1.64
2017-05-19T08:56:28.037Z,0.36
2017-05-19T08:58:55.001Z,0.58
2017-05-19T09:01:21.993Z,0.20
2017-05-19T09:03:48.953Z,0.20
2017-05-19T09:06:16.042Z,0.20
2017-05-19T09:08:43.015Z,0.30
2017-05-19T09:11:09.976Z,0.30
2017-05-19T09:13:36.971Z,0.42
2017-05-19T09:16:05.048Z,0.28
2017-05-19T09:18:32.102Z,0.30
2017-05-19T09:20:59.685Z,0.82
2017-05-19T09:23:26.676Z,1.28
2017-05-19T09:25:53.654Z,0.30
2017-05-19T09:28:20.666Z,0.86
2017-05-19T09:30:47.638Z,0.36
2017-05-19T09:33:14.610Z,0.44
2017-05-19T09:35:41.599Z,0.30
2017-05-19T09:38:08.562Z,0.30
2017-05-19T09:40:35.544Z,0.80
2017-05-19T09:43:02.502Z,0.98
2017-05-19T09:45:29.497Z,0.84
2017-05-19T09:47:56.490Z,0.72
2017-05-19T09:50:23.459Z,1.12
2017-05-19T09:52:50.454Z,0.52
2017-05-19T09:55:17.410Z,1.26
2017-05-19T09:57:44.407Z,0.40
2017-05-19T10:00:11.374Z,2.10
2017-05-19T10:02:38.382Z,1.12
2017-05-19T10:05:05.365Z,0.98
2017-05-19T10:07:32.390Z,2.56
2017-05-19T10:09:59.355Z,1.40
2017-05-19T10:12:26.337Z,0.60
2017-05-19T10:14:53.333Z,1.60
2017-05-19T10:17:20.307Z,0.58
2017-05-19T10:19:47.293Z,0.76
2017-05-19T10:22:14.262Z,0.40
2017-05-19T10:24:41.253Z,0.88
2017-05-19T10:27:08.221Z,3.42
2017-05-19T10:29:35.247Z,0.40
2017-05-19T10:32:02.209Z,0.62
2017-05-19T10:34:29.194Z,0.30
2017-05-19T10:36:56.186Z,2.10
2017-05-19T10:39:23.152Z,0.42
2017-05-19T10:41:50.151Z,0.48
2017-05-19T10:44:17.126Z,2.50
2017-05-19T10:46:44.113Z,0.78
2017-05-19T10:49:11.081Z,2.30
2017-05-19T10:51:38.094Z,0.40
2017-05-19T10:54:05.052Z,0.36
2017-05-19T10:56:32.020Z,1.84
2017-05-19T10:58:59.013Z,1.54
2017-05-19T11:01:26.003Z,0.40
2017-05-19T11:03:52.986Z,0.50
2017-05-19T11:06:19.977Z,1.64
2017-05-19T11:08:46.981Z,0.50
2017-05-19T11:11:13.953Z,0.32
2017-05-19T11:13:40.937Z,3.86
2017-05-19T11:16:07.937Z,0.86
2017-05-19T11:18:34.903Z,0.44
2017-05-19T11:21:01.890Z,0.30
2017-05-19T11:23:28.883Z,0.30
2017-05-19T11:26:02.793Z,3.44
2017-05-19T11:28:29.756Z,4.56
2017-05-19T11:30:56.717Z,0.90
2017-05-19T11:33:23.713Z,0.56
2017-05-19T11:35:50.698Z,0.50
2017-05-19T11:38:17.691Z,0.50
2017-05-19T11:40:44.665Z,0.50
2017-05-19T11:43:11.663Z,0.30
2017-05-19T11:45:38.629Z,0.50
2017-05-19T11:48:05.589Z,0.40
2017-05-19T11:50:32.675Z,0.30
2017-05-19T11:52:59.650Z,0.40
2017-05-19T11:55:26.638Z,0.50
2017-05-19T11:57:53.606Z,2.54
2017-05-19T12:00:20.616Z,0.30
2017-05-19T12:02:47.596Z,0.48
2017-05-19T12:05:14.635Z,0.58
2017-05-19T12:07:42.431Z,7.10
2017-05-19T12:10:09.438Z,0.50
2017-05-19T12:12:36.436Z,2.60
2017-05-19T12:15:03.421Z,1.28
2017-05-19T12:17:30.420Z,1.70
2017-05-19T12:19:57.399Z,1.12
2017-05-19T12:22:24.533Z,0.46
2017-05-19T12:24:51.507Z,1.28
2017-05-19T12:27:18.533Z,0.50
2017-05-19T12:29:45.499Z,0.54
2017-05-19T12:32:12.467Z,0.80
2017-05-19T12:34:39.460Z,1.28
2017-05-19T12:37:06.443Z,0.56
2017-05-19T12:39:33.507Z,0.72
2017-05-19T12:42:00.502Z,0.52
2017-05-19T12:44:27.535Z,0.50
2017-05-19T12:46:54.531Z,0.48
2017-05-19T12:49:21.626Z,0.50
2017-05-19T12:51:48.716Z,0.74
2017-05-19T12:54:15.734Z,0.50
2017-05-19T12:56:42.771Z,1.18
2017-05-19T12:59:09.740Z,0.56
2017-05-19T13:01:36.813Z,0.50
2017-05-19T13:04:03.842Z,0.50
2017-05-19T13:06:30.854Z,0.90
2017-05-19T13:08:57.825Z,0.72
2017-05-19T13:11:24.797Z,0.50
2017-05-19T13:13:51.899Z,0.72
2017-05-19T13:16:18.887Z,0.68
2017-05-19T13:18:46.007Z,3.70
2017-05-19T13:21:13.101Z,0.78
2017-05-19T13:23:40.094Z,0.52
2017-05-19T13:26:07.059Z,1.52
2017-05-19T13:28:34.063Z,0.60
2017-05-19T13:31:01.032Z,1.60
2017-05-19T13:33:28.191Z,0.90
2017-05-19T13:35:55.241Z,0.72
2017-05-19T13:38:22.305Z,0.84
2017-05-19T13:40:49.478Z,1.02
2017-05-19T13:43:16.467Z,0.62
2017-05-19T13:45:43.457Z,0.56
2017-05-19T13:48:10.456Z,0.64
2017-05-19T13:50:37.467Z,1.50
2017-05-19T13:53:04.468Z,1.48
2017-05-19T13:55:31.431Z,0.62
2017-05-19T13:57:58.436Z,1.18
2017-05-19T14:00:25.404Z,0.60
2017-05-19T14:02:52.435Z,0.70
2017-05-19T14:05:19.416Z,0.80
2017-05-19T14:07:46.411Z,0.90
2017-05-19T14:10:13.395Z,0.94
2017-05-19T14:12:40.391Z,0.90
2017-05-19T14:15:07.350Z,0.70
2017-05-19T14:17:34.348Z,0.74
2017-05-19T14:20:01.334Z,1.30
2017-05-19T14:22:28.319Z,0.80
2017-05-19T14:24:55.314Z,0.70
2017-05-19T14:27:22.287Z,0.60
2017-05-19T14:29:49.286Z,1.04
2017-05-19T14:32:16.270Z,0.60
2017-05-19T14:34:43.311Z,0.80
2017-05-19T14:37:10.305Z,0.88
2017-05-19T14:39:37.309Z,0.74
2017-05-19T14:42:04.275Z,0.80
2017-05-19T14:44:31.244Z,0.60
2017-05-19T14:46:58.227Z,0.70
2017-05-19T14:49:25.218Z,3.84
2017-05-19T14:51:52.214Z,1.10
2017-05-19T14:54:19.180Z,1.10
2017-05-19T14:56:46.170Z,1.10
2017-05-19T14:59:13.130Z,1.04
2017-05-19T15:01:40.142Z,1.14
2017-05-19T15:04:07.106Z,0.98
2017-05-19T15:06:34.098Z,1.28
2017-05-19T15:09:01.096Z,0.84
2017-05-19T15:11:28.063Z,0.64
2017-05-19T15:13:55.052Z,0.72
2017-05-19T15:16:22.032Z,0.80
2017-05-19T15:18:49.021Z,0.58
2017-05-19T15:21:16.011Z,5.08
2017-05-19T15:23:43.021Z,4.38
2017-05-19T15:26:09.994Z,2.66
2017-05-19T15:28:36.967Z,1.00
2017-05-19T15:31:03.968Z,1.08
2017-05-19T15:33:30.936Z,1.00
2017-05-19T15:35:57.928Z,1.38
2017-05-19T15:38:24.899Z,0.90
2017-05-19T15:40:51.893Z,1.06
2017-05-19T15:43:18.874Z,0.82
2017-05-19T15:45:45.886Z,0.80
2017-05-19T15:48:12.859Z,0.84
2017-05-19T15:50:39.833Z,1.08
2017-05-19T15:53:06.842Z,0.70
2017-05-19T15:55:33.806Z,0.68
2017-05-19T15:58:00.802Z,0.60
2017-05-19T16:00:27.765Z,0.86
2017-05-19T16:02:54.818Z,0.68
2017-05-19T16:05:21.796Z,1.00
2017-05-19T16:07:48.788Z,0.90
2017-05-19T16:10:15.784Z,1.90
2017-05-19T16:12:42.753Z,1.20
2017-05-19T16:15:09.737Z,0.90
2017-05-19T16:17:36.706Z,1.94
2017-05-19T16:20:03.703Z,0.80
2017-05-19T16:22:30.669Z,0.86
2017-05-19T16:24:57.638Z,1.28
2017-05-19T16:27:24.637Z,1.88
2017-05-19T16:29:51.598Z,2.62
2017-05-19T16:32:18.591Z,1.94
2017-05-19T16:34:45.565Z,1.70
2017-05-19T16:37:12.567Z,1.12
2017-05-19T16:39:39.530Z,1.10
2017-05-19T16:42:06.562Z,0.90
2017-05-19T16:44:33.537Z,1.16
2017-05-19T16:47:00.513Z,1.12
2017-05-19T16:49:27.519Z,1.56
2017-05-19T16:51:54.491Z,1.08
2017-05-19T16:54:23.573Z,1.14
2017-05-19T16:56:48.555Z,2.78
2017-05-19T16:59:15.550Z,0.80
2017-05-19T17:01:42.510Z,0.82
2017-05-19T17:04:09.505Z,1.02
2017-05-19T17:06:36.495Z,0.90
2017-05-19T17:09:03.554Z,0.90
2017-05-19T17:11:30.510Z,1.30
2017-05-19T17:13:57.518Z,1.98
2017-05-19T17:16:24.637Z,1.74
2017-05-19T17:18:51.686Z,0.90
2017-05-19T17:21:18.690Z,1.60
2017-05-19T17:23:45.665Z,0.98
2017-05-19T17:26:13.037Z,1.30
2017-05-19T17:28:40.082Z,1.20
2017-05-19T17:31:07.076Z,1.24
2017-05-19T17:33:34.038Z,1.64
2017-05-19T17:36:01.062Z,2.88
2017-05-19T17:38:28.036Z,10.04
2017-05-19T17:40:55.013Z,5.74
2017-05-19T17:43:22.007Z,1.42
2017-05-19T17:45:48.973Z,1.04
2017-05-19T17:48:15.973Z,1.10
2017-05-19T17:50:42.943Z,1.08
2017-05-19T17:53:09.936Z,2.84
2017-05-19T17:55:36.903Z,1.96
2017-05-19T17:58:03.893Z,3.06
2017-05-19T18:00:30.890Z,1.92
2017-05-19T18:02:57.986Z,0.98
2017-05-19T18:05:25.182Z,2.14
2017-05-19T18:07:52.160Z,1.40
2017-05-19T18:10:19.145Z,1.08
2017-05-19T18:12:46.111Z,2.78
2017-05-19T18:15:13.110Z,1.16
2017-05-19T18:17:40.102Z,2.40
2017-05-19T18:20:07.107Z,3.66
2017-05-19T18:22:34.098Z,4.04
2017-05-19T18:25:01.091Z,2.60
2017-05-19T18:27:28.096Z,2.06
2017-05-19T18:29:55.070Z,2.26
2017-05-19T18:32:22.064Z,1.80
2017-05-19T18:34:49.039Z,1.90
2017-05-19T18:37:16.038Z,1.22
2017-05-19T18:39:43.027Z,0.78
2017-05-19T18:42:10.048Z,1.38
2017-05-19T18:44:37.017Z,1.34
2017-05-19T18:47:03.991Z,1.08
2017-05-19T18:49:30.990Z,2.60
2017-05-19T18:51:57.964Z,2.02
2017-05-19T18:54:24.958Z,2.82
2017-05-19T18:56:51.962Z,3.80
2017-05-19T18:59:19.101Z,0.80
2017-05-19T19:01:46.248Z,1.00
2017-05-19T19:04:13.275Z,0.80
2017-05-19T19:06:40.275Z,1.26
2017-05-19T19:09:07.263Z,1.20
2017-05-19T19:11:34.266Z,1.02
2017-05-19T19:14:01.247Z,0.92
2017-05-19T19:16:28.235Z,1.16
2017-05-19T19:18:55.217Z,5.82
2017-05-19T19:21:22.226Z,4.42
2017-05-19T19:23:49.244Z,2.52
2017-05-19T19:26:16.278Z,1.50
2017-05-19T19:28:43.293Z,1.60
2017-05-19T19:31:10.265Z,3.74
2017-05-19T19:33:37.262Z,2.52
2017-05-19T19:36:04.225Z,6.24
2017-05-19T19:38:31.422Z,9.70
2017-05-19T19:40:58.422Z,4.04
2017-05-19T19:43:25.473Z,3.00
2017-05-19T19:45:52.621Z,2.24
2017-05-19T19:48:19.646Z,3.36
2017-05-19T19:50:46.650Z,4.20
2017-05-19T19:53:13.630Z,3.16
2017-05-19T19:55:40.619Z,2.58
2017-05-19T19:58:07.592Z,1.66
2017-05-19T20:00:34.622Z,4.10
2017-05-19T20:03:01.585Z,2.60
2017-05-19T20:05:28.603Z,7.92
2017-05-19T20:07:55.567Z,10.22
2017-05-19T20:10:22.616Z,6.18
2017-05-19T20:12:49.588Z,3.90
2017-05-19T20:15:16.665Z,3.86
2017-05-19T20:17:43.651Z,3.30
2017-05-19T20:20:10.628Z,2.16
2017-05-19T20:22:37.635Z,2.14
2017-05-19T20:25:04.613Z,2.40
2017-05-19T20:27:31.578Z,2.00
2017-05-19T20:29:58.715Z,1.84
2017-05-19T20:32:25.701Z,2.26
2017-05-19T20:34:52.817Z,1.78
2017-05-19T20:37:21.266Z,1.84
2017-05-19T20:39:48.269Z,2.02
2017-05-19T20:42:15.285Z,2.04
2017-05-19T20:44:42.254Z,2.02
2017-05-19T20:47:09.245Z,4.22
2017-05-19T20:49:37.054Z,2.00
2017-05-19T20:52:04.027Z,1.64
2017-05-19T20:54:31.193Z,1.80
2017-05-19T20:56:58.168Z,1.66
2017-05-19T20:59:25.215Z,2.66
2017-05-19T21:01:52.360Z,1.72
2017-05-19T21:04:19.334Z,2.00
2017-05-19T21:06:46.352Z,2.12
2017-05-19T21:09:13.342Z,2.20
2017-05-19T21:11:40.395Z,4.20
2017-05-19T21:14:07.372Z,1.52
2017-05-19T21:16:34.399Z,2.20
2017-05-19T21:19:01.544Z,1.78
2017-05-19T21:21:28.514Z,2.10
2017-05-19T21:23:55.514Z,1.60
2017-05-19T21:26:22.490Z,8.86
2017-05-19T21:28:49.486Z,4.16
2017-05-19T21:31:16.464Z,1.92
2017-05-19T21:33:43.466Z,2.00
2017-05-19T21:36:10.447Z,1.90
2017-05-19T21:38:37.445Z,1.92
2017-05-19T21:41:04.422Z,1.58
2017-05-19T21:43:31.418Z,1.80
2017-05-19T21:45:58.394Z,2.00
2017-05-19T21:48:25.419Z,2.12
2017-05-19T21:50:52.379Z,1.84
2017-05-19T21:53:26.334Z,1.88
2017-05-19T21:55:53.305Z,2.14
2017-05-19T21:58:27.282Z,1.82
2017-05-19T22:00:54.250Z,2.20
2017-05-19T22:03:21.217Z,2.50
2017-05-19T22:05:48.230Z,2.76
2017-05-19T22:08:15.199Z,1.94
2017-05-19T22:10:42.189Z,2.14
2017-05-19T22:13:09.338Z,2.12
2017-05-19T22:15:36.331Z,3.98
2017-05-19T22:18:03.301Z,2.46
2017-05-19T22:20:30.302Z,3.00
2017-05-19T22:22:57.390Z,2.20
2017-05-19T22:25:24.456Z,2.06
2017-05-19T22:27:51.445Z,2.36
2017-05-19T22:30:18.419Z,1.70
2017-05-19T22:32:45.409Z,3.48
2017-05-19T22:35:12.373Z,2.00
2017-05-19T22:37:39.370Z,2.50
2017-05-19T22:40:06.554Z,4.98
2017-05-19T22:42:33.542Z,2.00
2017-05-19T22:45:00.505Z,2.28
2017-05-19T22:47:28.295Z,2.56
2017-05-19T22:49:55.277Z,2.24
2017-05-19T22:52:22.281Z,2.30
2017-05-19T22:54:49.248Z,2.82
2017-05-19T22:57:16.215Z,2.56
2017-05-19T22:59:43.201Z,3.46
2017-05-19T23:02:10.176Z,2.26
2017-05-19T23:04:37.171Z,15.06
2017-05-19T23:07:03.506Z,2.60
2017-05-19T23:09:30.492Z,2.16
2017-05-19T23:11:57.462Z,2.30
2017-05-19T23:14:24.453Z,2.04
2017-05-19T23:16:51.421Z,2.06
2017-05-19T23:19:18.435Z,2.92
2017-05-19T23:21:45.401Z,3.84
2017-05-19T23:24:12.369Z,2.20
2017-05-19T23:26:39.359Z,2.84
2017-05-19T23:29:06.333Z,3.06
2017-05-19T23:31:33.325Z,2.52
2017-05-19T23:34:00.294Z,2.00
2017-05-19T23:36:27.286Z,2.30
2017-05-19T23:38:54.256Z,2.24
2017-05-19T23:41:21.269Z,2.00
2017-05-19T23:43:48.240Z,2.36
2017-05-19T23:46:15.220Z,2.34
2017-05-19T23:48:42.206Z,2.06
2017-05-19T23:51:09.174Z,2.40
2017-05-19T23:53:36.166Z,5.02
2017-05-19T23:56:03.141Z,4.70
2017-05-19T23:58:30.128Z,2.98
